Time;durP1;ratioP1;P1;durP2;ratioP2;P2;SDS_P1;SDS_P2;PMS_P1;PMS_P2;Temp;Humidity;BMP_temperature;BMP_pressure;BME280_temperature;BME280_humidity;BME280_pressure;Samples;Min_cycle;Max_cycle;Signal;HPM_P1;HPM_P2
2022/11/18 00:01:07;;;;;;;9.02;4.65;;;;;;;5.54;100.00;99339.88;6094913;23;20796;-85
2022/11/18 00:03:33;;;;;;;11.15;4.35;;;;;;;5.53;100.00;99336.38;6121104;23;20005;-85
2022/11/18 00:05:58;;;;;;;6.05;4.60;;;;;;;5.48;100.00;99334.00;6120583;23;20084;-85
2022/11/18 00:08:24;;;;;;;8.43;4.65;;;;;;;5.57;100.00;99339.72;6123512;23;20005;-85
2022/11/18 00:10:50;;;;;;;7.47;4.70;;;;;;;5.58;100.00;99342.25;6100758;23;20006;-85
2022/11/18 00:16:06;;;;;;;7.30;4.43;;;;;;;5.48;100.00;99343.69;6124514;23;20351;-85
2022/11/18 00:18:32;;;;;;;8.38;4.25;;;;;;;5.56;100.00;99338.88;6127332;23;20428;-85
2022/11/18 00:21:01;;;;;;;7.93;4.75;;;;;;;5.52;100.00;99352.28;6127657;23;20006;-86
2022/11/18 00:23:27;;;;;;;6.93;4.40;;;;;;;5.41;100.00;99343.16;6123804;23;20013;-85
2022/11/18 00:25:52;;;;;;;5.95;4.13;;;;;;;5.45;100.00;99343.84;6130582;23;20001;-84
2022/11/18 00:28:18;;;;;;;9.27;4.13;;;;;;;5.50;100.00;99358.50;6132915;23;20006;-86
2022/11/18 00:30:43;;;;;;;8.75;3.95;;;;;;;5.47;100.00;99361.28;6138094;23;20002;-86
2022/11/18 00:33:08;;;;;;;9.68;4.10;;;;;;;5.35;100.00;99334.72;6138007;23;20013;-86
2022/11/18 00:35:34;;;;;;;7.70;3.78;;;;;;;5.55;100.00;99367.97;6128540;23;20009;-86
2022/11/18 00:37:59;;;;;;;7.38;3.70;;;;;;;5.54;100.00;99361.84;6126546;23;20080;-86
2022/11/18 00:40:24;;;;;;;10.38;4.20;;;;;;;5.64;100.00;99363.06;6125365;23;20421;-86
2022/11/18 00:42:50;;;;;;;10.88;4.32;;;;;;;5.74;100.00;99372.16;6109061;23;20042;-86
2022/11/18 00:45:15;;;;;;;9.93;3.78;;;;;;;5.73;100.00;99377.53;6125454;23;20010;-86
2022/11/18 00:47:41;;;;;;;8.07;3.55;;;;;;;5.79;100.00;99386.91;6126721;23;20017;-86
2022/11/18 00:50:06;;;;;;;5.90;3.53;;;;;;;5.82;100.00;99379.69;6123515;23;20005;-84
2022/11/18 00:52:32;;;;;;;7.07;3.63;;;;;;;5.87;100.00;99372.34;6123802;23;20012;-85
2022/11/18 00:54:57;;;;;;;6.72;3.63;;;;;;;5.97;100.00;99381.47;6122299;23;20010;-85
2022/11/18 00:57:22;;;;;;;6.72;4.15;;;;;;;5.93;100.00;99377.31;6122319;23;20430;-85
2022/11/18 00:59:47;;;;;;;7.82;4.18;;;;;;;6.04;100.00;99402.28;6123152;23;20077;-86
2022/11/18 01:02:13;;;;;;;6.07;3.75;;;;;;;5.99;100.00;99395.47;6122623;23;20483;-86
2022/11/18 01:04:38;;;;;;;7.40;4.18;;;;;;;5.98;100.00;99391.13;6120628;23;20025;-86
2022/11/18 01:07:03;;;;;;;6.88;4.40;;;;;;;5.99;100.00;99398.13;6122090;23;20468;-86
2022/11/18 01:09:29;;;;;;;7.95;4.28;;;;;;;5.99;100.00;99405.19;6122885;23;20082;-86
2022/11/18 01:14:38;;;;;;;5.45;3.97;;;;;;;6.01;100.00;99410.38;6121772;23;20073;-86
2022/11/18 01:17:03;;;;;;;7.88;4.25;;;;;;;5.99;100.00;99410.47;6123117;23;20006;-86
2022/11/18 01:19:28;;;;;;;6.78;4.18;;;;;;;6.01;100.00;99418.31;6122185;23;20033;-85
2022/11/18 01:21:55;;;;;;;8.50;4.32;;;;;;;6.05;100.00;99411.91;6120903;23;20013;-85
2022/11/18 01:24:20;;;;;;;4.88;3.65;;;;;;;6.10;100.00;99423.06;6120741;23;20005;-85
2022/11/18 01:26:46;;;;;;;6.47;3.58;;;;;;;6.10;100.00;99421.28;6122035;23;20093;-84
2022/11/18 01:29:11;;;;;;;9.10;3.97;;;;;;;6.09;100.00;99414.28;6121912;23;20339;-85
2022/11/18 01:31:37;;;;;;;18.08;4.20;;;;;;;6.19;100.00;99434.00;6122936;23;20085;-84
2022/11/18 01:34:03;;;;;;;5.63;4.15;;;;;;;6.23;100.00;99435.53;6121571;23;20021;-86
2022/11/18 01:36:28;;;;;;;6.70;4.28;;;;;;;6.30;100.00;99441.31;6122111;23;20487;-85
2022/11/18 01:38:54;;;;;;;11.48;4.60;;;;;;;6.30;100.00;99436.03;6121876;23;20008;-86
2022/11/18 01:41:23;;;;;;;7.97;4.70;;;;;;;6.40;100.00;99444.31;6121843;23;20092;-86
2022/11/18 01:44:01;;;;;;;10.20;4.18;;;;;;;6.45;100.00;99450.19;6118694;23;20021;-86
2022/11/18 01:46:29;;;;;;;6.25;3.90;;;;;;;6.45;100.00;99445.75;6123594;23;20391;-86
2022/11/18 01:48:57;;;;;;;8.82;4.38;;;;;;;6.42;100.00;99448.56;6122726;23;20097;-85
2022/11/18 01:51:31;;;;;;;5.95;3.67;;;;;;;6.43;100.00;99439.69;6121775;23;20620;-86
2022/11/18 01:54:08;;;;;;;5.45;3.78;;;;;;;6.42;100.00;99440.63;6122320;23;20336;-85
2022/11/18 01:56:41;;;;;;;8.18;3.78;;;;;;;6.47;100.00;99458.88;6124451;23;20322;-85
2022/11/18 01:59:17;;;;;;;8.07;3.13;;;;;;;6.50;100.00;99456.06;6122771;23;20006;-85
2022/11/18 02:01:42;;;;;;;4.63;2.97;;;;;;;6.46;100.00;99442.16;6123260;23;20033;-86
2022/11/18 02:04:08;;;;;;;9.02;3.60;;;;;;;6.54;100.00;99454.97;6122105;23;20006;-85
2022/11/18 02:06:35;;;;;;;6.28;3.22;;;;;;;6.51;100.00;99459.56;6123081;23;20001;-84
2022/11/18 02:09:01;;;;;;;6.78;3.10;;;;;;;6.52;100.00;99463.91;6122095;23;20006;-85
2022/11/18 02:14:11;;;;;;;7.82;3.05;;;;;;;6.52;100.00;99464.78;6119726;23;20052;-85
2022/11/18 02:16:45;;;;;;;4.40;2.72;;;;;;;6.55;100.00;99466.38;6121059;23;20002;-85
2022/11/18 02:19:37;;;;;;;5.88;3.20;;;;;;;6.51;100.00;99463.06;6121509;23;20012;-85
2022/11/18 02:22:11;;;;;;;6.53;3.10;;;;;;;6.63;100.00;99477.38;6121239;23;20089;-85
2022/11/18 02:25:06;;;;;;;5.25;3.03;;;;;;;6.64;100.00;99477.28;6120079;23;20009;-85
2022/11/18 02:27:49;;;;;;;;;;;;;;;6.66;100.00;99477.22;6109642;23;20014;-86
2022/11/18 02:30:16;;;;;;;3.50;2.88;;;;;;;6.67;100.00;99478.91;6121152;23;20255;-85
2022/11/18 02:32:51;;;;;;;7.47;3.30;;;;;;;6.73;100.00;99483.88;6122212;23;20009;-85
2022/11/18 02:35:32;;;;;;;5.63;3.05;;;;;;;6.74;100.00;99488.22;6119590;23;20428;-85
2022/11/18 02:38:10;;;;;;;5.30;2.95;;;;;;;6.76;100.00;99483.66;6119928;23;20097;-85
2022/11/18 02:40:40;;;;;;;4.95;3.15;;;;;;;6.75;100.00;99489.91;6121520;23;20359;-84
2022/11/18 02:43:15;;;;;;;10.10;3.42;;;;;;;6.72;100.00;99484.78;6119546;23;20136;-84
2022/11/18 02:45:45;;;;;;;12.63;5.57;;;;;;;6.81;100.00;99496.63;6123648;23;20001;-84
2022/11/18 02:48:13;;;;;;;8.00;3.63;;;;;;;6.74;100.00;99490.84;6123621;23;20048;-85
2022/11/18 02:50:41;;;;;;;6.80;3.33;;;;;;;6.79;100.00;99502.03;6128631;23;20077;-85
2022/11/18 02:53:12;;;;;;;7.00;3.40;;;;;;;6.79;100.00;99498.53;6126865;23;20058;-83
2022/11/18 02:55:40;;;;;;;5.63;3.42;;;;;;;6.87;100.00;99512.16;6129485;23;20010;-85
2022/11/18 02:58:07;;;;;;;8.02;3.75;;;;;;;6.84;100.00;99505.25;6128316;23;20010;-85
2022/11/18 03:00:34;;;;;;;6.75;3.60;;;;;;;6.90;100.00;99509.34;6125328;23;20005;-86
2022/11/18 03:03:25;;;;;;;5.05;3.35;;;;;;;6.91;100.00;99519.84;6098269;23;20061;-84
2022/11/18 03:06:08;;;;;;;5.82;3.90;;;;;;;6.93;100.00;99520.59;6123887;23;20417;-84
2022/11/18 03:08:41;;;;;;;5.68;3.60;;;;;;;6.88;100.00;99513.88;6098021;23;20335;-84
2022/11/18 03:11:19;;;;;;;6.63;3.47;;;;;;;6.91;100.00;99519.00;6122538;23;20006;-86
2022/11/18 03:14:06;;;;;;;7.65;3.83;;;;;;;6.92;100.00;99521.53;6096728;23;20010;-85
2022/11/18 03:16:38;;;;;;;7.80;4.00;;;;;;;6.91;100.00;99522.47;6122874;23;20090;-86
2022/11/18 03:19:32;;;;;;;6.57;3.70;;;;;;;6.95;100.00;99528.47;6123155;23;20005;-85
2022/11/18 03:22:23;;;;;;;7.03;3.92;;;;;;;6.98;100.00;99533.56;6094574;23;20010;-85
2022/11/18 03:25:00;;;;;;;6.63;4.03;;;;;;;6.97;100.00;99526.56;6120863;23;20325;-86
2022/11/18 03:27:32;;;;;;;7.55;3.83;;;;;;;6.93;100.00;99533.81;6121200;23;20013;-86
2022/11/18 03:30:03;;;;;;;6.75;3.92;;;;;;;6.91;100.00;99537.50;6121879;23;20090;-84
2022/11/18 03:32:32;;;;;;;7.60;4.20;;;;;;;6.76;100.00;99518.06;6121198;23;20013;-85
2022/11/18 03:35:04;;;;;;;7.45;4.50;;;;;;;6.82;100.00;99546.81;6122653;23;20006;-85
2022/11/18 03:37:32;;;;;;;8.43;4.47;;;;;;;6.79;100.00;99540.84;6123728;23;20016;-86
2022/11/18 03:40:05;;;;;;;9.82;5.28;;;;;;;6.75;100.00;99548.09;6096839;23;20005;-86
2022/11/18 03:42:37;;;;;;;7.88;4.03;;;;;;;6.74;100.00;99554.31;6104325;23;20388;-86
2022/11/18 03:45:09;;;;;;;6.55;4.65;;;;;;;6.67;100.00;99545.88;6124167;23;20006;-85
2022/11/18 03:47:40;;;;;;;8.65;4.57;;;;;;;6.66;100.00;99556.53;6123336;23;20061;-85
2022/11/18 03:50:17;;;;;;;7.32;4.40;;;;;;;6.66;100.00;99564.47;6123001;23;20081;-86
2022/11/18 03:52:44;;;;;;;8.73;4.60;;;;;;;6.67;100.00;99564.38;6124392;23;20017;-86
2022/11/18 03:55:15;;;;;;;9.93;4.72;;;;;;;6.66;100.00;99570.59;6122863;23;20032;-83
2022/11/18 03:58:08;;;;;;;8.90;4.57;;;;;;;6.65;100.00;99568.06;6121870;23;20006;-86
2022/11/18 04:00:41;;;;;;;9.35;4.40;;;;;;;6.64;100.00;99576.91;6107807;23;20094;-85
2022/11/18 04:03:07;;;;;;;9.18;4.70;;;;;;;6.57;100.00;99575.56;6123696;23;20020;-84
2022/11/18 04:05:37;;;;;;;8.82;4.88;;;;;;;6.63;100.00;99585.78;6126774;23;20579;-85
2022/11/18 04:08:06;;;;;;;9.30;5.03;;;;;;;6.63;100.00;99586.63;6127828;23;20014;-86
2022/11/18 04:10:43;;;;;;;8.23;4.82;;;;;;;6.55;100.00;99583.53;6126664;23;20002;-85
2022/11/18 04:13:16;;;;;;;7.75;4.72;;;;;;;6.60;100.00;99591.22;6124289;23;20090;-85
2022/11/18 04:15:42;;;;;;;8.02;4.70;;;;;;;6.56;100.00;99594.97;6121727;23;20206;-86
2022/11/18 04:18:08;;;;;;;10.10;4.45;;;;;;;6.53;100.00;99597.81;6122605;23;20373;-85
2022/11/18 04:20:34;;;;;;;7.88;4.53;;;;;;;6.49;100.00;99594.47;6122275;23;20021;-86
2022/11/18 04:23:00;;;;;;;10.05;4.25;;;;;;;6.49;100.00;99605.03;6122977;23;20476;-85
2022/11/18 04:25:25;;;;;;;9.18;4.45;;;;;;;6.43;100.00;99600.06;6123252;23;20005;-85
2022/11/18 04:27:51;;;;;;;5.95;4.35;;;;;;;6.45;100.00;99608.78;6124179;23;20010;-85
2022/11/18 04:30:17;;;;;;;8.73;4.38;;;;;;;6.43;100.00;99618.56;6123703;23;20009;-85
2022/11/18 04:32:42;;;;;;;7.88;4.65;;;;;;;6.37;100.00;99609.19;6121467;23;20006;-86
2022/11/18 04:35:08;;;;;;;7.57;4.13;;;;;;;6.35;100.00;99620.75;6120747;23;20013;-85
2022/11/18 04:37:33;;;;;;;7.78;4.20;;;;;;;6.31;100.00;99614.81;6122857;23;20025;-86
2022/11/18 04:39:59;;;;;;;8.43;4.30;;;;;;;6.17;100.00;99609.38;6120903;23;20373;-85
2022/11/18 04:42:24;;;;;;;9.27;4.00;;;;;;;6.16;100.00;99618.25;6120727;23;20022;-85
2022/11/18 04:44:50;;;;;;;8.50;4.55;;;;;;;6.13;100.00;99629.81;6121998;23;20021;-85
2022/11/18 04:47:15;;;;;;;8.15;4.40;;;;;;;5.99;100.00;99613.84;6123378;23;20328;-85
2022/11/18 04:49:40;;;;;;;7.10;4.45;;;;;;;6.03;100.00;99631.25;6124193;23;20006;-85
2022/11/18 04:52:05;;;;;;;8.60;4.53;;;;;;;5.99;100.00;99627.91;6122910;23;20092;-86
2022/11/18 04:54:31;;;;;;;6.78;4.60;;;;;;;5.96;100.00;99635.97;6123331;23;20068;-86
2022/11/18 04:56:56;;;;;;;7.47;4.82;;;;;;;5.94;100.00;99640.50;6124167;23;20010;-85
2022/11/18 04:59:24;;;;;;;10.75;5.18;;;;;;;5.95;100.00;99636.91;6123394;23;20010;-85
2022/11/18 05:01:50;;;;;;;10.05;4.90;;;;;;;5.94;100.00;99639.66;6122947;23;20014;-86
2022/11/18 05:04:19;;;;;;;6.88;4.85;;;;;;;5.90;100.00;99659.19;6122891;23;20118;-85
2022/11/18 05:06:44;;;;;;;9.05;5.05;;;;;;;5.89;100.00;99658.31;6097519;23;20024;-85
2022/11/18 05:09:10;;;;;;;7.50;4.78;;;;;;;5.86;100.00;99657.63;6123230;23;20391;-85
2022/11/18 05:14:19;;;;;;;9.95;5.72;;;;;;;5.72;100.00;99659.16;6124793;23;20072;-85
2022/11/18 05:16:45;;;;;;;8.90;5.55;;;;;;;5.68;100.00;99660.22;6134573;23;20009;-85
2022/11/18 05:19:10;;;;;;;8.32;5.68;;;;;;;5.60;100.00;99658.91;6132382;23;20009;-86
2022/11/18 05:21:36;;;;;;;8.77;6.18;;;;;;;5.55;100.00;99659.13;6130922;23;20009;-83
2022/11/18 05:24:03;;;;;;;11.63;5.90;;;;;;;5.49;100.00;99668.22;6123738;23;20029;-85
2022/11/18 05:26:28;;;;;;;8.68;5.65;;;;;;;5.50;100.00;99677.84;6124801;23;20062;-85
2022/11/18 05:28:54;;;;;;;8.48;5.78;;;;;;;5.42;100.00;99673.84;6098023;23;20002;-85
2022/11/18 05:31:19;;;;;;;7.43;5.15;;;;;;;5.42;100.00;99679.13;6124880;23;20006;-85
2022/11/18 05:33:45;;;;;;;13.18;6.18;;;;;;;5.38;100.00;99685.50;6124034;23;20006;-85
2022/11/18 05:36:14;;;;;;;8.25;5.32;;;;;;;5.36;100.00;99684.72;6124487;23;20443;-85
2022/11/18 05:38:39;;;;;;;11.02;6.35;;;;;;;5.38;100.00;99688.13;6125163;23;20076;-85
2022/11/18 05:41:05;;;;;;;11.32;5.88;;;;;;;5.31;100.00;99682.31;6123639;23;20508;-86
2022/11/18 05:43:31;;;;;;;7.68;5.38;;;;;;;5.34;100.00;99695.34;6123324;23;20024;-86
2022/11/18 05:45:57;;;;;;;8.98;6.40;;;;;;;5.34;100.00;99695.34;6124463;23;20081;-86
2022/11/18 05:48:23;;;;;;;8.80;6.35;;;;;;;5.35;100.00;99697.06;6124668;23;20009;-84
2022/11/18 05:50:51;;;;;;;9.40;6.35;;;;;;;5.32;100.00;99699.84;6123762;23;20080;-85
2022/11/18 05:53:17;;;;;;;9.07;6.00;;;;;;;5.30;100.00;99708.75;6123370;23;20002;-85
2022/11/18 05:56:20;;;;;;;10.55;6.18;;;;;;;5.25;100.00;99706.31;6124525;23;20080;-86
2022/11/18 05:58:46;;;;;;;9.07;5.95;;;;;;;5.26;100.00;99705.38;6123782;23;20092;-85
2022/11/18 06:01:15;;;;;;;11.48;6.53;;;;;;;5.25;100.00;99706.31;6123298;23;20046;-86
2022/11/18 06:03:40;;;;;;;12.48;6.13;;;;;;;5.21;100.00;99708.25;6119783;23;20401;-87
2022/11/18 06:06:08;;;;;;;10.57;6.22;;;;;;;5.17;100.00;99711.09;6095868;23;20064;-85
2022/11/18 06:08:38;;;;;;;10.38;6.10;;;;;;;5.15;100.00;99712.97;6122120;23;20009;-84
2022/11/18 06:11:06;;;;;;;9.27;6.30;;;;;;;5.16;100.00;99727.88;6122964;23;20002;-86
2022/11/18 06:13:39;;;;;;;9.95;6.13;;;;;;;5.15;100.00;99734.94;6122549;23;20349;-85
2022/11/18 06:16:05;;;;;;;10.55;6.90;;;;;;;5.10;100.00;99738.69;6122877;23;20013;-85
2022/11/18 06:18:31;;;;;;;13.50;7.75;;;;;;;5.10;100.00;99733.41;6122158;23;20010;-85
2022/11/18 06:21:00;;;;;;;10.50;6.70;;;;;;;5.05;100.00;99740.69;6121701;23;20002;-85
2022/11/18 06:23:32;;;;;;;12.00;6.82;;;;;;;5.03;100.00;99750.47;6121476;23;20005;-84
2022/11/18 06:25:58;;;;;;;10.85;7.13;;;;;;;5.02;100.00;99754.00;6123081;23;20417;-86
2022/11/18 06:28:25;;;;;;;11.68;7.28;;;;;;;5.01;100.00;99755.78;6121993;23;20002;-86
2022/11/18 06:30:50;;;;;;;11.63;7.50;;;;;;;4.97;100.00;99756.84;6122243;23;20002;-86
2022/11/18 06:33:15;;;;;;;10.02;6.80;;;;;;;4.90;100.00;99752.78;6122549;23;20032;-84
2022/11/18 06:35:42;;;;;;;10.07;7.15;;;;;;;4.93;100.00;99764.06;6123618;23;20006;-85
2022/11/18 06:38:07;;;;;;;11.32;7.57;;;;;;;4.87;100.00;99761.69;6096422;23;20014;-84
2022/11/18 06:40:34;;;;;;;9.80;7.00;;;;;;;4.89;100.00;99775.69;6122017;23;20054;-85
2022/11/18 06:46:54;;;;;;;11.57;7.22;;;;;;;4.82;100.00;99782.13;6121784;23;20021;-85
2022/11/18 06:48:33;;;;;;;11.43;7.35;;;;;;;4.85;100.00;99784.66;6121909;23;20012;-84
2022/11/18 06:50:58;;;;;;;11.52;8.13;;;;;;;4.81;100.00;99785.69;6121399;23;20409;-85
2022/11/18 06:53:24;;;;;;;14.63;8.48;;;;;;;4.76;100.00;99782.38;6121005;23;20017;-85
2022/11/18 06:55:49;;;;;;;12.93;9.15;;;;;;;4.76;100.00;99787.66;6120985;23;20006;-85
2022/11/18 06:58:14;;;;;;;12.38;8.90;;;;;;;4.76;100.00;99795.56;6122429;23;20081;-85
2022/11/18 07:00:40;;;;;;;10.90;8.75;;;;;;;4.74;100.00;99786.88;6121603;23;20025;-85
2022/11/18 07:03:05;;;;;;;14.30;9.30;;;;;;;4.79;100.00;99795.44;6121841;23;20037;-85
2022/11/18 07:05:30;;;;;;;12.05;8.68;;;;;;;4.77;100.00;99804.34;6121364;23;20081;-85
2022/11/18 07:07:55;;;;;;;13.10;8.98;;;;;;;4.82;100.00;99810.28;6122073;23;20006;-85
2022/11/18 07:10:21;;;;;;;11.18;8.88;;;;;;;4.84;100.00;99813.69;6093271;23;20390;-81
2022/11/18 07:12:46;;;;;;;14.25;9.10;;;;;;;4.81;100.00;99811.19;6093508;23;20006;-84
2022/11/18 07:15:12;;;;;;;13.68;8.95;;;;;;;4.86;100.00;99818.00;6119903;23;20037;-85
2022/11/18 07:17:37;;;;;;;13.45;9.15;;;;;;;4.85;100.00;99813.66;6093781;23;20006;-84
2022/11/18 07:20:03;;;;;;;11.30;8.55;;;;;;;4.83;100.00;99819.91;6118571;23;20002;-84
2022/11/18 07:22:28;;;;;;;14.77;9.30;;;;;;;4.87;100.00;99824.13;6119209;23;20010;-84
2022/11/18 07:24:53;;;;;;;13.85;8.95;;;;;;;4.87;100.00;99830.25;6121120;23;20013;-85
2022/11/18 07:27:19;;;;;;;12.82;8.73;;;;;;;4.87;100.00;99832.88;6121716;23;20077;-86
2022/11/18 07:29:44;;;;;;;13.95;9.73;;;;;;;4.86;100.00;99839.06;6125080;23;20056;-86
2022/11/18 07:32:09;;;;;;;15.35;10.63;;;;;;;4.87;100.00;99834.66;6121090;23;20033;-85
2022/11/18 07:34:34;;;;;;;15.27;9.68;;;;;;;4.91;100.00;99839.72;6131085;23;20010;-85
2022/11/18 07:37:00;;;;;;;16.25;10.23;;;;;;;4.90;100.00;99845.09;6144750;23;19994;-87
2022/11/18 07:39:25;;;;;;;18.15;11.10;;;;;;;4.88;100.00;99847.75;6143804;23;19985;-85
2022/11/18 07:41:50;;;;;;;14.98;10.50;;;;;;;4.92;100.00;99854.63;6146479;23;20002;-86
2022/11/18 07:44:16;;;;;;;15.55;9.77;;;;;;;4.93;100.00;99860.75;6148465;23;20045;-85
2022/11/18 07:46:42;;;;;;;14.13;10.60;;;;;;;4.91;100.00;99847.66;6141129;23;20441;-85
2022/11/18 07:49:08;;;;;;;14.25;10.82;;;;;;;4.77;100.00;99833.34;6143395;23;20021;-86
2022/11/18 07:51:36;;;;;;;15.43;11.48;;;;;;;4.97;100.00;99867.59;6114247;23;20064;-85
2022/11/18 07:54:09;;;;;;;16.77;11.15;;;;;;;4.97;100.00;99864.97;6128185;23;20013;-88
2022/11/18 07:56:34;;;;;;;14.82;11.07;;;;;;;4.93;100.00;99864.28;6125630;23;20001;-85
2022/11/18 07:58:59;;;;;;;12.55;10.13;;;;;;;4.96;100.00;99872.03;6128889;23;20021;-90
2022/11/18 08:01:29;;;;;;;15.52;11.35;;;;;;;5.02;100.00;99880.59;6128233;23;20040;-90
2022/11/18 08:03:55;;;;;;;15.77;11.43;;;;;;;5.05;100.00;99881.31;6124024;23;20428;-87
2022/11/18 08:06:20;;;;;;;15.38;11.40;;;;;;;5.04;100.00;99874.34;6122800;23;20065;-86
2022/11/18 08:08:46;;;;;;;19.13;11.52;;;;;;;5.12;100.00;99885.41;6096592;23;20033;-85
2022/11/18 08:11:15;;;;;;;16.17;12.50;;;;;;;5.17;100.00;99890.47;6123324;23;20257;-87
2022/11/18 08:13:40;;;;;;;15.70;11.60;;;;;;;5.21;100.00;99876.22;6095339;23;20041;-86
2022/11/18 08:16:15;;;;;;;16.90;12.02;;;;;;;5.52;100.00;99890.69;6094835;23;20076;-86
2022/11/18 08:18:41;;;;;;;17.15;11.98;;;;;;;5.73;100.00;99889.72;6119876;23;20511;-86
2022/11/18 08:21:06;;;;;;;13.05;10.90;;;;;;;5.91;100.00;99901.22;6120921;23;20058;-87
2022/11/18 08:23:32;;;;;;;15.20;10.35;;;;;;;5.85;100.00;99883.00;6122110;23;20049;-86
2022/11/18 08:26:12;;;;;;;15.32;10.02;;;;;;;5.90;100.00;99904.78;6095946;23;20009;-87
2022/11/18 08:28:38;;;;;;;12.35;9.07;;;;;;;5.85;100.00;99910.28;6123665;23;20084;-87
2022/11/18 08:31:16;;;;;;;14.63;9.82;;;;;;;5.82;100.00;99914.84;6122691;23;20057;-85
2022/11/18 08:33:41;;;;;;;15.65;9.80;;;;;;;5.74;100.00;99921.34;6099120;23;20068;-86
2022/11/18 08:36:09;;;;;;;11.15;7.88;;;;;;;5.74;100.00;99923.97;6125641;23;20005;-87
2022/11/18 08:38:35;;;;;;;10.98;7.57;;;;;;;5.69;100.00;99909.28;6123310;23;20012;-88
2022/11/18 08:41:00;;;;;;;11.20;8.10;;;;;;;5.74;100.00;99909.91;6120902;23;20368;-87
2022/11/18 08:43:26;;;;;;;12.23;8.23;;;;;;;5.90;100.00;99921.50;6115978;23;20036;-87
2022/11/18 08:45:51;;;;;;;9.77;7.97;;;;;;;6.09;100.00;99925.94;6124332;23;20424;-87
2022/11/18 08:48:16;;;;;;;13.00;7.60;;;;;;;6.22;100.00;99921.78;6124705;23;20006;-89
2022/11/18 08:50:41;;;;;;;10.82;7.35;;;;;;;6.29;100.00;99920.56;6123548;23;20017;-87
2022/11/18 08:53:07;;;;;;;11.60;7.68;;;;;;;6.48;100.00;99921.41;6124899;23;20076;-86
2022/11/18 08:55:33;;;;;;;11.95;6.65;;;;;;;6.66;100.00;99913.50;6123865;23;20424;-88
2022/11/18 08:57:58;;;;;;;8.73;5.82;;;;;;;6.86;100.00;99917.81;6123059;23;20022;-88
2022/11/18 09:00:23;;;;;;;9.93;6.18;;;;;;;6.93;100.00;99917.38;6123061;23;20005;-88
2022/11/18 09:02:49;;;;;;;10.48;6.43;;;;;;;7.08;100.00;99922.84;6122823;23;20006;-87
2022/11/18 09:05:14;;;;;;;10.77;5.63;;;;;;;7.14;100.00;99914.59;6124432;23;20005;-87
2022/11/18 09:07:39;;;;;;;10.40;5.90;;;;;;;7.33;100.00;99931.22;6124132;23;20078;-87
2022/11/18 09:10:05;;;;;;;9.75;5.18;;;;;;;7.39;100.00;99927.41;6123876;23;20020;-87
2022/11/18 09:12:30;;;;;;;9.68;6.13;;;;;;;7.53;100.00;99937.28;6126764;23;20006;-86
2022/11/18 09:14:55;;;;;;;12.10;5.70;;;;;;;7.49;100.00;99926.84;6123851;23;20001;-87
2022/11/18 09:17:21;;;;;;;9.38;5.13;;;;;;;7.50;100.00;99946.25;6122252;23;20029;-88
2022/11/18 09:19:46;;;;;;;11.38;5.75;;;;;;;7.42;100.00;99930.75;6122206;23;20038;-87
2022/11/18 09:22:11;;;;;;;11.02;5.55;;;;;;;7.40;100.00;99939.72;6123671;23;20048;-87
2022/11/18 09:24:37;;;;;;;8.52;5.05;;;;;;;7.43;100.00;99943.03;6122690;23;20013;-86
2022/11/18 09:27:04;;;;;;;6.65;5.28;;;;;;;7.38;100.00;99939.78;6124116;23;20273;-86
2022/11/18 09:29:29;;;;;;;8.50;5.47;;;;;;;7.41;100.00;99942.28;6123321;23;20006;-86
2022/11/18 09:31:54;;;;;;;9.63;5.47;;;;;;;7.37;100.00;99953.13;6124450;23;20017;-85
2022/11/18 09:34:21;;;;;;;9.30;4.93;;;;;;;7.36;100.00;99956.69;6123693;23;20010;-89
2022/11/18 09:36:46;;;;;;;7.78;5.30;;;;;;;7.36;100.00;99957.56;6124678;23;20013;-87
2022/11/18 09:39:12;;;;;;;9.50;5.25;;;;;;;7.41;100.00;99965.25;6121785;23;20002;-87
2022/11/18 09:41:40;;;;;;;10.55;5.30;;;;;;;7.39;100.00;99978.56;6123280;23;20332;-88
2022/11/18 09:44:39;;;;;;;11.15;5.50;;;;;;;7.35;100.00;99977.00;6123386;23;20008;-87
2022/11/18 09:47:19;;;;;;;8.57;4.57;;;;;;;7.31;100.00;99982.53;6122738;23;20375;-87
2022/11/18 09:49:45;;;;;;;9.95;5.10;;;;;;;7.31;100.00;99995.75;6122757;23;20002;-88
2022/11/18 09:52:27;;;;;;;10.93;5.30;;;;;;;7.35;100.00;99997.31;6124265;23;20009;-87
2022/11/18 09:54:53;;;;;;;9.88;5.40;;;;;;;7.40;100.00;99995.31;6125950;23;20379;-87
2022/11/18 09:57:24;;;;;;;11.48;5.80;;;;;;;7.53;100.00;100011.44;6123178;23;20093;-88
2022/11/18 09:59:50;;;;;;;8.57;5.57;;;;;;;7.55;100.00;100007.75;6124784;23;20317;-87
2022/11/18 10:02:28;;;;;;;10.00;5.43;;;;;;;7.50;100.00;99999.19;6114066;23;20040;-89
2022/11/18 10:04:56;;;;;;;12.18;6.07;;;;;;;7.61;100.00;100014.53;6115548;23;19994;-87
2022/11/18 10:07:34;;;;;;;7.68;5.28;;;;;;;7.69;100.00;100012.31;6141305;23;20006;-87
2022/11/18 10:10:06;;;;;;;13.88;5.90;;;;;;;7.96;100.00;100020.63;6137057;23;20065;-88
2022/11/18 10:12:41;;;;;;;10.38;5.05;;;;;;;8.17;100.00;100011.53;6134704;23;20329;-88
2022/11/18 10:15:07;;;;;;;10.13;4.90;;;;;;;8.30;100.00;100019.66;6106747;23;20064;-87
2022/11/18 10:17:50;;;;;;;10.27;5.15;;;;;;;8.38;100.00;100022.78;6122756;23;20002;-87
2022/11/18 10:20:37;;;;;;;9.50;5.37;;;;;;;8.55;100.00;100024.50;6123995;23;20013;-86
2022/11/18 10:23:19;;;;;;;7.57;4.63;;;;;;;8.79;100.00;100022.28;6097279;23;20398;-87
2022/11/18 10:25:45;;;;;;;11.43;5.40;;;;;;;9.01;100.00;100016.59;6123619;23;20081;-86
2022/11/18 10:28:28;;;;;;;10.43;5.32;;;;;;;9.14;100.00;100019.41;6097436;23;20088;-88
2022/11/18 10:30:53;;;;;;;8.57;4.57;;;;;;;9.23;100.00;100022.38;6097539;23;20002;-88
2022/11/18 10:33:21;;;;;;;7.95;4.68;;;;;;;9.33;100.00;100027.16;6123334;23;20013;-87
2022/11/18 10:35:48;;;;;;;9.77;4.65;;;;;;;9.31;100.00;100029.03;6124249;23;20427;-87
2022/11/18 10:38:13;;;;;;;8.98;4.30;;;;;;;9.26;99.16;100029.31;6124614;23;20009;-87
2022/11/18 10:40:48;;;;;;;6.95;4.32;;;;;;;9.17;99.81;100025.41;6123611;23;20326;-88
2022/11/18 10:43:53;;;;;;;8.93;4.60;;;;;;;9.16;100.00;100030.81;6124182;23;20028;-88
2022/11/18 10:46:18;;;;;;;8.32;4.25;;;;;;;9.13;100.00;100039.78;6123901;23;20022;-88
2022/11/18 10:48:44;;;;;;;9.25;4.68;;;;;;;9.04;100.00;100037.66;6122796;23;20073;-88
2022/11/18 10:51:22;;;;;;;9.40;4.35;;;;;;;9.01;100.00;100051.09;6122864;23;20005;-87
2022/11/18 10:53:47;;;;;;;9.32;4.63;;;;;;;8.97;100.00;100045.13;6097206;23;20010;-87
2022/11/18 10:56:16;;;;;;;7.85;4.68;;;;;;;8.96;100.00;100042.56;6098196;23;20017;-87
2022/11/18 10:58:44;;;;;;;8.77;4.45;;;;;;;8.89;100.00;100034.06;6121678;23;20069;-86
2022/11/18 11:01:23;;;;;;;9.20;4.70;;;;;;;8.94;100.00;100047.06;6120946;23;20002;-86
2022/11/18 11:04:01;;;;;;;7.25;4.53;;;;;;;8.92;100.00;100044.53;6121491;23;20384;-88
2022/11/18 11:06:37;;;;;;;8.82;4.38;;;;;;;8.91;100.00;100056.09;6095913;23;20065;-85
2022/11/18 11:09:13;;;;;;;9.63;4.70;;;;;;;8.94;100.00;100063.84;6121746;23;20006;-86
2022/11/18 11:11:55;;;;;;;9.77;5.15;;;;;;;8.97;100.00;100063.69;6120091;23;20005;-85
2022/11/18 11:14:35;;;;;;;9.75;5.03;;;;;;;8.97;100.00;100060.19;6122098;23;20062;-87
2022/11/18 11:17:09;;;;;;;10.77;4.95;;;;;;;8.94;100.00;100055.91;6122438;23;20505;-87
2022/11/18 11:19:40;;;;;;;8.07;5.00;;;;;;;8.97;100.00;100055.72;6096452;23;20006;-87
2022/11/18 11:22:10;;;;;;;8.68;4.55;;;;;;;9.00;100.00;100057.38;6120566;23;20010;-85
2022/11/18 11:24:36;;;;;;;11.55;5.20;;;;;;;9.08;100.00;100054.28;6120242;23;20081;-87
2022/11/18 11:27:09;;;;;;;9.10;5.15;;;;;;;9.16;100.00;100060.84;6121342;23;20037;-87
2022/11/18 11:30:12;;;;;;;9.45;5.22;;;;;;;9.28;100.00;100066.38;6120699;23;20089;-88
2022/11/18 11:33:01;;;;;;;9.93;4.78;;;;;;;9.38;100.00;100063.13;6122122;23;20028;-86
2022/11/18 11:35:33;;;;;;;9.35;4.75;;;;;;;9.44;99.81;100062.75;6123008;23;20017;-88
2022/11/18 11:38:05;;;;;;;10.80;4.97;;;;;;;9.43;98.79;100058.38;6122274;23;20009;-86
2022/11/18 11:40:38;;;;;;;13.85;5.53;;;;;;;9.48;99.60;100063.44;6095986;23;20436;-86
2022/11/18 11:43:31;;;;;;;13.73;5.35;;;;;;;9.57;99.81;100062.03;6125622;23;20021;-88
2022/11/18 11:46:11;;;;;;;8.05;4.72;;;;;;;9.63;99.50;100067.00;6098523;23;20009;-87
2022/11/18 11:48:49;;;;;;;10.25;5.85;;;;;;;9.72;98.50;100064.63;6123754;23;20002;-87
2022/11/18 11:51:20;;;;;;;9.73;4.53;;;;;;;9.78;98.35;100074.06;6121818;23;20013;-87
2022/11/18 11:53:48;;;;;;;11.07;4.95;;;;;;;9.72;98.47;100066.44;6121743;23;20037;-86